Alpine, Colorado
Current Conditions -  °F | °C
As of 12:45 PM on Thursday 30 Oct 2014 (Local Time) from KRCV Reporting Station
Clear Clear  
Wind Chill: 14°   Ceiling: Unl
Heat Index: 14°   Visibility: 10mi
Dew Point: -7°   Wind: 12mph
Humidity: 23%   Direction: 100°E
Pressure: 30.41"   Gusts: NA
Location:  37.6617°N, 106.617°W
Report Text: KRCV 301845Z AUTO 10010KT 10SM CLR 14/M07 A3041 RMK AO2 T01421071
Loading
Personal Weather Stations






























Interactive Weather Map
Tropical Storm Tracking
New forecast layout! Learn more

10-Day Weather Forecast

Advertisements
Track Severe Weather on mobile